Time;durP1;ratioP1;P1;durP2;ratioP2;P2;SDS_P1;SDS_P2;PMS_P1;PMS_P2;Temp;Humidity;BMP_temperature;BMP_pressure;BME280_temperature;BME280_humidity;BME280_pressure;Samples;Min_cycle;Max_cycle;Signal;HPM_P1;HPM_P2
2022/08/11 00:02:05;;;;;;;3.77;2.77;;;24.00;43.40;;;;;;5088102;28;20460;-68
2022/08/11 00:04:36;;;;;;;3.00;2.80;;;24.00;43.50;;;;;;5087499;28;20471;-69
2022/08/11 00:07:05;;;;;;;2.60;2.40;;;23.90;43.50;;;;;;5088137;28;20483;-69
2022/08/11 00:09:37;;;;;;;6.30;2.73;;;23.80;44.10;;;;;;5088434;28;20437;-70
2022/08/11 00:12:12;;;;;;;2.60;2.20;;;23.80;43.70;;;;;;5088384;28;20836;-68
2022/08/11 00:14:39;;;;;;;3.07;2.87;;;23.80;43.70;;;;;;5087631;28;20476;-68
2022/08/11 00:17:11;;;;;;;2.70;2.50;;;23.70;43.60;;;;;;5087446;28;20439;-68
2022/08/11 00:19:45;;;;;;;4.87;2.53;;;23.70;43.90;;;;;;5087631;28;20472;-68
2022/08/11 00:22:19;;;;;;;3.53;2.67;;;23.70;43.90;;;;;;5087851;28;20471;-68
2022/08/11 00:24:46;;;;;;;2.80;2.60;;;23.60;44.00;;;;;;5088147;28;20507;-68
2022/08/11 00:27:13;;;;;;;3.23;2.93;;;23.60;44.10;;;;;;5086699;28;20449;-68
2022/08/11 00:29:40;;;;;;;2.33;2.10;;;23.60;44.40;;;;;;5087157;28;20449;-68
2022/08/11 00:32:14;;;;;;;4.63;2.40;;;23.50;44.50;;;;;;5087818;28;20465;-68
2022/08/11 00:34:46;;;;;;;5.53;2.70;;;23.40;44.60;;;;;;5087794;28;20440;-69
2022/08/11 00:37:19;;;;;;;3.20;2.87;;;23.30;44.50;;;;;;5087711;28;20437;-69
2022/08/11 00:39:50;;;;;;;4.63;2.87;;;23.30;44.60;;;;;;5087859;28;20476;-69
2022/08/11 00:42:27;;;;;;;2.87;2.67;;;23.30;44.80;;;;;;5087481;28;20465;-68
2022/08/11 00:45:03;;;;;;;4.20;3.23;;;23.10;44.70;;;;;;5086787;28;20498;-68
2022/08/11 00:47:50;;;;;;;4.57;3.10;;;23.10;44.90;;;;;;5086357;28;20449;-68
2022/08/11 00:50:26;;;;;;;2.90;2.70;;;23.00;45.10;;;;;;5086608;28;20468;-68
2022/08/11 00:53:12;;;;;;;2.73;2.53;;;23.00;45.30;;;;;;5085785;28;20441;-68
2022/08/11 00:56:18;;;;;;;4.20;3.43;;;22.90;45.50;;;;;;5087023;28;20435;-68
2022/08/11 00:59:26;;;;;;;3.40;2.97;;;22.80;45.60;;;;;;5063968;28;20999;-68
2022/08/11 01:02:08;;;;;;;3.17;2.87;;;22.80;45.70;;;;;;5087395;28;20465;-68
2022/08/11 01:05:20;;;;;;;2.57;2.37;;;22.70;45.60;;;;;;5087252;28;20456;-68
2022/08/11 01:08:21;;;;;;;3.33;3.03;;;22.70;45.80;;;;;;5086808;28;20448;-68
2022/08/11 01:11:38;;;;;;;3.63;2.67;;;22.60;45.70;;;;;;5088860;28;20445;-68
2022/08/11 01:14:51;;;;;;;3.80;2.90;;;22.60;46.10;;;;;;5086897;28;20425;-68
2022/08/11 01:18:07;;;;;;;3.43;3.00;;;22.60;46.40;;;;;;5086996;28;20471;-68
2022/08/11 01:21:07;;;;;;;2.77;2.57;;;22.50;46.50;;;;;;5087774;28;20497;-68
2022/08/11 01:24:25;;;;;;;4.50;2.80;;;22.40;46.50;;;;;;5086907;28;20456;-68
2022/08/11 01:27:24;;;;;;;4.07;2.40;;;22.40;46.60;;;;;;5086798;28;20437;-69
2022/08/11 01:30:43;;;;;;;3.97;2.63;;;22.30;46.50;;;;;;5086289;28;20437;-68
2022/08/11 01:33:58;;;;;;;2.83;2.63;;;22.20;46.50;;;;;;5086820;28;20464;-68
2022/08/11 01:37:06;;;;;;;3.90;3.30;;;22.20;46.60;;;;;;5087407;28;20860;-68
2022/08/11 01:40:07;;;;;;;4.80;2.57;;;22.10;46.60;;;;;;5087688;28;20471;-68
2022/08/11 01:46:11;;;;;;;5.40;2.50;;;22.00;46.90;;;;;;5088191;28;20461;-68
2022/08/11 01:48:43;;;;;;;3.73;3.43;;;22.00;47.70;;;;;;5087709;28;20424;-68
2022/08/11 01:51:36;;;;;;;3.60;3.30;;;21.90;47.20;;;;;;5088068;28;20471;-68
2022/08/11 01:54:13;;;;;;;3.67;3.37;;;21.90;47.30;;;;;;5086752;28;20489;-68
2022/08/11 01:56:57;;;;;;;2.70;2.47;;;21.80;47.30;;;;;;5088036;28;20425;-69
2022/08/11 01:59:28;;;;;;;3.47;2.87;;;21.80;47.50;;;;;;5087444;28;20469;-68
2022/08/11 02:02:18;;;;;;;3.00;2.70;;;21.80;47.60;;;;;;5087808;28;20472;-68
2022/08/11 02:04:57;;;;;;;8.97;3.20;;;21.70;47.60;;;;;;5090971;28;20457;-68
2022/08/11 02:07:35;;;;;;;3.83;2.70;;;21.70;47.70;;;;;;5091027;28;20444;-68
2022/08/11 02:13:07;;;;;;;5.03;2.80;;;21.60;48.00;;;;;;5068173;28;20460;-68
2022/08/11 02:15:38;;;;;;;4.90;3.10;;;21.60;48.30;;;;;;5090718;28;20429;-68
2022/08/11 02:18:10;;;;;;;4.60;2.97;;;21.50;48.40;;;;;;5091530;28;20431;-68
2022/08/11 02:23:41;;;;;;;8.13;3.40;;;21.40;48.60;;;;;;5090892;28;20436;-68
2022/08/11 02:26:22;;;;;;;8.40;3.00;;;21.30;48.60;;;;;;5090227;28;20429;-68
2022/08/11 02:29:01;;;;;;;6.80;3.17;;;21.30;48.80;;;;;;5091182;28;20441;-68
2022/08/11 02:34:38;;;;;;;3.73;3.43;;;21.10;48.80;;;;;;5090994;28;20463;-68
2022/08/11 02:37:15;;;;;;;3.33;2.60;;;21.10;49.30;;;;;;5091237;28;20429;-68
2022/08/11 02:39:53;;;;;;;4.00;3.60;;;21.10;49.20;;;;;;5091311;28;20465;-68
2022/08/11 02:42:29;;;;;;;2.80;2.60;;;21.00;49.40;;;;;;5089442;28;20465;-68
2022/08/11 02:45:17;;;;;;;4.80;2.77;;;20.90;49.50;;;;;;5088059;28;20425;-69
2022/08/11 02:50:41;;;;;;;3.77;3.20;;;20.90;49.70;;;;;;5089592;28;20444;-68
2022/08/11 02:53:14;;;;;;;3.37;3.00;;;20.90;49.80;;;;;;5090582;28;20421;-68
2022/08/11 02:55:53;;;;;;;4.13;3.80;;;20.90;50.00;;;;;;5090823;28;20433;-68
2022/08/11 02:58:36;;;;;;;4.17;3.23;;;20.80;49.90;;;;;;5090131;28;20441;-67
2022/08/11 03:01:14;;;;;;;3.13;2.93;;;20.80;50.00;;;;;;5089083;28;20489;-68
2022/08/11 03:03:51;;;;;;;3.60;3.00;;;20.80;50.00;;;;;;5089644;28;20847;-68
2022/08/11 03:06:29;;;;;;;3.83;3.40;;;20.80;50.10;;;;;;5090289;28;20439;-67
2022/08/11 03:09:04;;;;;;;3.47;3.17;;;20.80;50.20;;;;;;5089615;28;20433;-68
2022/08/11 03:17:54;;;;;;;3.33;3.03;;;20.80;50.30;;;;;;5090540;28;20907;-69
2022/08/11 03:20:32;;;;;;;4.60;3.23;;;20.90;50.50;;;;;;5089680;28;20495;-68
2022/08/11 03:23:04;;;;;;;7.93;3.33;;;20.90;50.50;;;;;;5089984;28;20429;-68
2022/08/11 03:25:37;;;;;;;5.10;3.80;;;20.90;50.70;;;;;;5089874;28;20436;-68
2022/08/11 03:28:15;;;;;;;4.87;3.40;;;20.90;50.90;;;;;;5090170;28;20433;-69
2022/08/11 03:30:48;;;;;;;4.60;3.20;;;20.80;50.80;;;;;;5090146;28;20515;-68
2022/08/11 03:36:20;;;;;;;3.50;3.23;;;20.80;50.90;;;;;;5089768;28;20461;-68
2022/08/11 03:39:05;;;;;;;3.37;3.07;;;20.80;51.00;;;;;;5089419;28;20447;-68
2022/08/11 03:41:44;;;;;;;5.07;3.20;;;20.70;50.80;;;;;;5088924;28;20468;-68
2022/08/11 03:44:23;;;;;;;3.97;3.13;;;20.60;50.80;;;;;;5089595;28;20429;-69
2022/08/11 03:47:17;;;;;;;3.50;3.20;;;20.60;51.10;;;;;;5089015;28;20457;-69
2022/08/11 03:50:00;;;;;;;3.50;3.20;;;20.50;51.20;;;;;;5089945;28;20464;-68
2022/08/11 03:52:41;;;;;;;3.77;3.47;;;20.40;51.20;;;;;;5089171;28;20492;-68
2022/08/11 03:55:15;;;;;;;3.57;2.90;;;20.40;51.90;;;;;;5089347;28;20493;-68
2022/08/11 03:58:25;;;;;;;4.10;3.30;;;20.40;51.50;;;;;;5089580;28;20452;-68
2022/08/11 04:01:20;;;;;;;3.87;3.57;;;20.30;51.60;;;;;;5089353;28;20571;-68
2022/08/11 04:04:20;;;;;;;5.53;3.30;;;20.30;51.80;;;;;;5089667;28;20468;-68
2022/08/11 04:07:22;;;;;;;3.93;3.50;;;20.20;51.80;;;;;;5044491;28;20456;-68
2022/08/11 04:10:20;;;;;;;3.80;3.50;;;20.20;51.80;;;;;;5089337;28;20500;-68
2022/08/11 04:13:26;;;;;;;5.97;3.60;;;20.20;52.00;;;;;;5089027;28;20437;-68
2022/08/11 04:16:15;;;;;;;4.30;3.87;;;20.20;52.10;;;;;;5088992;28;20449;-68
2022/08/11 04:19:15;;;;;;;3.80;3.50;;;20.20;52.30;;;;;;5088311;28;20433;-69
2022/08/11 04:22:15;;;;;;;3.73;3.43;;;20.20;52.30;;;;;;5087772;28;20483;-68
2022/08/11 04:24:59;;;;;;;4.20;3.57;;;20.20;52.50;;;;;;5087569;28;20455;-68
2022/08/11 04:28:11;;;;;;;5.13;4.47;;;20.20;52.50;;;;;;5087072;28;20900;-67
2022/08/11 04:30:57;;;;;;;5.47;3.67;;;20.20;52.50;;;;;;5087751;28;20461;-68
2022/08/11 04:33:40;;;;;;;5.63;4.23;;;20.20;52.60;;;;;;5086657;28;20429;-68
2022/08/11 04:39:27;;;;;;;7.63;4.60;;;20.20;53.00;;;;;;5086719;28;20947;-68
2022/08/11 04:45:18;;;;;;;4.20;3.80;;;20.20;53.00;;;;;;5086898;28;20418;-69
2022/08/11 05:03:38;;;;;;;3.47;3.13;;;19.90;53.20;;;;;;5087182;28;20605;-67
2022/08/11 05:06:27;;;;;;;3.73;3.43;;;19.90;53.20;;;;;;5087661;28;20844;-68
2022/08/11 05:09:22;;;;;;;4.13;3.17;;;19.80;53.10;;;;;;5088105;28;20421;-68
2022/08/11 05:12:09;;;;;;;6.33;3.97;;;19.90;53.30;;;;;;5087006;28;21006;-68
2022/08/11 05:37:12;;;;;;;4.07;3.77;;;20.10;55.30;;;;;;5086764;28;20946;-68
2022/08/11 05:56:43;;;;;;;7.33;4.67;;;20.70;56.60;;;;;;5089494;28;20420;-69
2022/08/11 05:59:14;;;;;;;8.93;4.00;;;20.80;56.80;;;;;;5089551;28;20424;-68
2022/08/11 06:01:43;;;;;;;6.07;4.30;;;20.80;56.90;;;;;;5089590;28;20522;-68
2022/08/11 06:04:19;;;;;;;7.60;4.63;;;21.00;57.00;;;;;;5090057;28;20456;-68
2022/08/11 06:06:51;;;;;;;6.20;4.40;;;21.00;57.00;;;;;;5090229;28;20452;-69
2022/08/11 06:09:24;;;;;;;7.37;4.47;;;21.10;56.90;;;;;;5089187;28;20453;-68
2022/08/11 06:11:52;;;;;;;5.40;4.90;;;21.20;56.80;;;;;;5089108;28;20460;-68
2022/08/11 06:14:21;;;;;;;5.07;4.27;;;21.30;56.60;;;;;;5089635;28;20445;-68
2022/08/11 06:16:50;;;;;;;4.90;4.30;;;21.50;57.10;;;;;;5088330;28;20459;-69
2022/08/11 06:19:21;;;;;;;5.93;4.60;;;21.60;57.00;;;;;;5088337;28;20441;-69
2022/08/11 06:21:50;;;;;;;5.70;4.03;;;21.70;56.80;;;;;;5088867;28;20495;-68
2022/08/11 06:24:18;;;;;;;5.90;5.00;;;21.70;56.00;;;;;;5089424;28;20453;-69
2022/08/11 06:26:49;;;;;;;6.03;3.83;;;21.80;56.20;;;;;;5089061;28;20505;-69
2022/08/11 06:29:18;;;;;;;12.50;4.77;;;22.00;56.20;;;;;;5089325;28;20441;-68
2022/08/11 06:31:53;;;;;;;6.97;4.50;;;22.20;55.00;;;;;;5089944;28;20457;-69
2022/08/11 06:34:31;;;;;;;5.47;4.00;;;22.30;53.30;;;;;;5089692;28;20908;-69
2022/08/11 06:37:10;;;;;;;6.23;4.20;;;22.40;53.10;;;;;;5088881;28;21018;-69
2022/08/11 06:39:47;;;;;;;8.20;3.90;;;22.60;52.80;;;;;;5089169;28;20487;-68
2022/08/11 06:42:25;;;;;;;5.27;4.00;;;22.70;52.60;;;;;;5089233;28;20468;-68
2022/08/11 06:45:07;;;;;;;6.47;4.80;;;22.90;51.90;;;;;;5089919;28;20437;-68
2022/08/11 06:47:35;;;;;;;5.53;3.33;;;23.00;50.90;;;;;;5090152;28;20434;-68
2022/08/11 06:52:59;;;;;;;8.93;3.60;;;23.30;49.40;;;;;;5047695;28;20985;-68
2022/08/11 07:01:03;;;;;;;3.97;3.43;;;23.90;47.50;;;;;;5089134;28;20491;-69
2022/08/11 07:03:37;;;;;;;6.23;3.67;;;24.10;46.70;;;;;;5088954;28;20460;-69
2022/08/11 07:06:15;;;;;;;10.30;4.40;;;24.20;45.80;;;;;;5089068;28;20432;-69
2022/08/11 07:29:13;;;;;;;4.70;3.20;;;25.60;41.00;;;;;;5089663;28;20408;-68
2022/08/11 07:31:43;;;;;;;6.97;3.97;;;25.70;40.30;;;;;;5089226;28;20465;-69
2022/08/11 07:34:19;;;;;;;3.10;2.90;;;25.90;40.00;;;;;;5089316;28;20444;-70
2022/08/11 07:36:52;;;;;;;6.57;3.80;;;26.10;39.50;;;;;;5089465;28;20520;-68
2022/08/11 07:39:22;;;;;;;3.73;3.43;;;26.30;39.40;;;;;;5089367;28;20808;-69
2022/08/11 07:41:51;;;;;;;6.33;3.73;;;26.50;38.80;;;;;;5089221;28;20485;-68
2022/08/11 07:44:19;;;;;;;3.27;2.93;;;26.70;37.60;;;;;;5089607;28;20832;-69
2022/08/11 07:52:39;;;;;;;5.90;3.60;;;27.00;37.70;;;;;;5046559;28;20426;-69
2022/08/11 07:55:08;;;;;;;3.97;3.37;;;27.30;37.10;;;;;;5072001;28;20453;-69
2022/08/11 08:19:46;;;;;;;6.70;3.90;;;29.40;32.50;;;;;;5097119;28;20400;-69
2022/08/11 08:22:17;;;;;;;3.20;2.93;;;29.60;32.80;;;;;;5097017;28;20525;-70
2022/08/11 08:24:46;;;;;;;3.33;3.03;;;29.80;32.40;;;;;;5096470;28;20417;-69
2022/08/11 08:27:13;;;;;;;3.60;3.30;;;29.90;32.50;;;;;;5096940;28;20445;-70
2022/08/11 08:32:28;;;;;;;4.20;3.80;;;30.40;31.70;;;;;;5096639;28;20427;-69
2022/08/11 08:34:57;;;;;;;4.27;3.00;;;30.60;30.90;;;;;;5097137;28;20439;-69
2022/08/11 08:37:26;;;;;;;5.93;3.43;;;30.90;31.10;;;;;;5094544;28;20433;-69
2022/08/11 08:39:55;;;;;;;3.70;3.40;;;31.10;30.90;;;;;;5086035;28;20451;-69
2022/08/11 08:42:25;;;;;;;8.00;3.27;;;31.30;29.60;;;;;;5095101;28;20484;-68
2022/08/11 08:44:58;;;;;;;4.40;3.47;;;31.60;29.40;;;;;;5088536;28;20438;-70
2022/08/11 08:47:28;;;;;;;5.70;3.67;;;31.70;28.30;;;;;;5081993;28;20425;-69
2022/08/11 08:50:01;;;;;;;4.53;3.60;;;31.90;28.70;;;;;;5082637;28;20440;-69
2022/08/11 08:52:34;;;;;;;4.57;3.43;;;32.10;29.50;;;;;;5083584;28;20504;-69
2022/08/11 08:55:05;;;;;;;5.10;3.90;;;32.30;29.10;;;;;;5084431;28;20429;-69
2022/08/11 08:57:34;;;;;;;4.03;3.30;;;32.60;28.90;;;;;;5084220;28;20527;-70
2022/08/11 09:00:04;;;;;;;4.43;4.13;;;32.80;28.90;;;;;;5083676;28;20464;-69
2022/08/11 09:02:32;;;;;;;6.73;4.10;;;33.00;28.50;;;;;;5083584;28;20515;-69
2022/08/11 09:05:02;;;;;;;5.60;3.77;;;33.30;28.30;;;;;;5083778;28;20876;-69
2022/08/11 09:07:30;;;;;;;5.57;4.00;;;33.50;27.90;;;;;;5083501;28;20547;-68
2022/08/11 09:09:58;;;;;;;3.73;3.43;;;33.60;27.80;;;;;;5083381;28;20904;-68
2022/08/11 09:12:29;;;;;;;3.70;3.40;;;33.90;27.70;;;;;;5084038;28;20436;-67
2022/08/11 09:15:02;;;;;;;4.00;3.47;;;34.10;27.00;;;;;;5086302;28;20447;-69
2022/08/11 09:17:31;;;;;;;5.00;3.50;;;34.30;26.50;;;;;;5087202;28;20432;-69
2022/08/11 09:20:00;;;;;;;7.60;3.80;;;34.50;26.30;;;;;;5086884;28;20931;-68
2022/08/11 09:28:00;;;;;;;5.83;4.07;;;35.00;25.90;;;;;;5087605;28;20972;-68
2022/08/11 09:30:28;;;;;;;5.80;3.93;;;35.30;25.10;;;;;;5086907;28;20459;-68
2022/08/11 09:32:59;;;;;;;7.53;4.70;;;35.50;25.30;;;;;;5086704;28;20432;-68
2022/08/11 09:35:27;;;;;;;5.67;4.00;;;35.70;25.30;;;;;;5086268;28;20432;-69
2022/08/11 09:40:43;;;;;;;3.80;2.90;;;36.00;23.70;;;;;;5086422;28;20447;-68
2022/08/11 09:45:59;;;;;;;5.03;3.17;;;36.20;21.70;;;;;;5082292;28;20403;-68
2022/08/11 09:48:28;;;;;;;5.80;3.40;;;36.20;22.50;;;;;;5081813;28;20939;-68
2022/08/11 09:50:57;;;;;;;3.30;3.00;;;36.30;23.70;;;;;;5085142;28;20464;-68
2022/08/11 09:53:25;;;;;;;4.13;3.13;;;36.50;23.30;;;;;;5084170;28;20451;-68
2022/08/11 09:55:53;;;;;;;5.50;3.07;;;36.70;22.20;;;;;;5084978;28;20448;-69
2022/08/11 09:58:23;;;;;;;5.40;3.50;;;36.90;22.00;;;;;;5084763;28;20210;-69
2022/08/11 10:00:51;;;;;;;6.53;3.10;;;37.10;21.30;;;;;;5085322;28;20491;-68
2022/08/11 10:03:20;;;;;;;4.17;3.00;;;37.20;21.40;;;;;;5085025;28;20456;-68
2022/08/11 10:08:37;;;;;;;3.70;3.00;;;37.80;22.20;;;;;;5083167;28;20273;-68
2022/08/11 10:11:07;;;;;;;4.20;3.27;;;38.10;21.90;;;;;;5083764;28;20214;-68
2022/08/11 10:16:24;;;;;;;4.70;3.42;;;38.60;19.40;;;;;;5083339;28;20194;-69
2022/08/11 10:18:52;;;;;;;6.05;4.30;;;38.90;20.40;;;;;;5083680;28;20202;-69
2022/08/11 10:21:27;;;;;;;4.82;3.08;;;39.20;20.10;;;;;;5082849;28;20232;-69
2022/08/11 10:26:57;;;;;;;4.65;3.20;;;39.80;18.80;;;;;;5040243;28;20206;-69
2022/08/11 10:35:01;;;;;;;3.42;2.55;;;40.60;16.70;;;;;;5084329;28;20308;-68
2022/08/11 10:37:35;;;;;;;3.70;2.80;;;40.80;16.30;;;;;;5083283;28;20202;-69
2022/08/11 10:40:04;;;;;;;2.88;2.67;;;41.00;15.60;;;;;;5082678;28;20186;-69
2022/08/11 10:48:05;;;;;;;4.57;2.90;;;41.90;14.90;;;;;;5082718;28;20267;-69
2022/08/11 10:58:48;;;;;;;4.13;2.50;;;44.00;14.60;;;;;;5082678;28;20712;-69
2022/08/11 11:01:23;;;;;;;2.88;2.30;;;44.70;14.40;;;;;;5080699;28;20272;-70
2022/08/11 11:03:52;;;;;;;3.88;2.90;;;45.30;14.00;;;;;;5081067;28;20215;-69
2022/08/11 11:06:25;;;;;;;5.68;2.75;;;45.80;14.20;;;;;;5083162;28;20241;-69
2022/08/11 11:08:56;;;;;;;2.53;2.33;;;46.30;13.40;;;;;;5080977;28;20240;-69
2022/08/11 11:17:54;;;;;;;3.45;2.67;;;46.60;12.90;;;;;;5081249;28;20229;-69
2022/08/11 11:19:53;;;;;;;2.70;2.50;;;47.40;12.10;;;;;;5081499;28;20182;-69
2022/08/11 11:22:40;;;;;;;4.15;2.50;;;47.60;12.20;;;;;;5079495;28;20605;-70
2022/08/11 11:25:25;;;;;;;3.42;2.45;;;47.80;11.90;;;;;;5080881;28;20592;-69
2022/08/11 11:28:13;;;;;;;2.92;2.15;;;48.10;11.90;;;;;;5079049;28;20688;-69
2022/08/11 11:30:55;;;;;;;3.05;2.40;;;48.40;11.90;;;;;;5079957;28;20716;-69
2022/08/11 11:33:30;;;;;;;6.53;2.50;;;48.60;11.60;;;;;;5081262;28;20190;-69
2022/08/11 11:36:11;;;;;;;2.80;2.45;;;49.00;11.40;;;;;;5080545;28;20197;-69
2022/08/11 11:38:40;;;;;;;2.85;2.55;;;49.20;11.30;;;;;;5080448;28;20197;-70
2022/08/11 11:41:26;;;;;;;3.47;2.08;;;49.40;11.20;;;;;;5079602;28;20234;-69
2022/08/11 11:43:56;;;;;;;4.05;2.45;;;49.50;11.00;;;;;;5080624;28;20186;-69
2022/08/11 11:46:26;;;;;;;4.82;2.40;;;49.70;11.20;;;;;;5079022;28;20186;-70
2022/08/11 11:48:55;;;;;;;4.07;2.28;;;49.90;11.00;;;;;;5079868;28;20205;-69
2022/08/11 11:51:23;;;;;;;3.80;2.38;;;50.20;11.00;;;;;;5080263;28;20225;-70
2022/08/11 11:53:51;;;;;;;4.82;2.28;;;50.40;10.70;;;;;;5082443;28;20194;-69
2022/08/11 11:56:21;;;;;;;4.53;2.40;;;50.60;10.50;;;;;;5082733;28;20198;-69
2022/08/11 12:01:33;;;;;;;4.90;2.40;;;51.00;10.40;;;;;;5079903;28;20225;-70
2022/08/11 12:04:05;;;;;;;3.53;2.50;;;51.20;10.30;;;;;;5078064;28;20700;-70
2022/08/11 12:06:33;;;;;;;3.42;2.20;;;51.50;10.50;;;;;;5078681;28;20193;-70
2022/08/11 12:09:00;;;;;;;2.90;2.53;;;51.80;10.40;;;;;;5080189;28;20205;-70
2022/08/11 12:14:17;;;;;;;2.53;2.33;;;52.00;9.90;;;;;;5078136;28;20177;-70
2022/08/11 12:16:45;;;;;;;3.67;2.70;;;52.20;9.60;;;;;;5078249;28;20572;-69
2022/08/11 12:19:16;;;;;;;4.20;1.98;;;52.50;9.60;;;;;;5078465;28;20198;-70
2022/08/11 12:27:25;;;;;;;3.20;2.28;;;53.00;9.10;;;;;;5077916;28;20212;-70
2022/08/11 12:29:55;;;;;;;2.28;1.98;;;53.20;9.00;;;;;;5079636;28;20202;-70
2022/08/11 12:32:24;;;;;;;3.97;2.42;;;53.40;9.00;;;;;;5081109;28;20675;-70
2022/08/11 12:34:52;;;;;;;4.72;1.92;;;53.50;8.70;;;;;;5077228;28;20209;-70
2022/08/11 12:37:25;;;;;;;2.47;2.28;;;53.70;8.30;;;;;;5078720;28;20209;-70
2022/08/11 12:45:28;;;;;;;2.95;2.22;;;54.20;8.30;;;;;;5078725;28;20185;-71
2022/08/11 12:53:46;;;;;;;2.92;2.25;;;54.80;8.00;;;;;;5077654;28;20255;-71
2022/08/11 13:07:15;;;;;;;2.13;1.80;;;55.90;6.80;;;;;;5077740;28;20251;-71
2022/08/11 13:09:44;;;;;;;2.65;2.05;;;55.80;6.20;;;;;;5079104;28;20194;-71
2022/08/11 13:14:56;;;;;;;2.10;1.60;;;55.90;7.50;;;;;;5078505;28;20181;-71
2022/08/11 13:17:23;;;;;;;2.50;2.30;;;55.90;7.10;;;;;;5077119;28;20202;-71
2022/08/11 13:19:52;;;;;;;5.05;2.17;;;56.00;7.10;;;;;;5077712;28;20202;-71
2022/08/11 13:22:23;;;;;;;3.85;1.98;;;56.10;7.50;;;;;;5077245;28;20229;-71
2022/08/11 13:24:53;;;;;;;3.10;2.00;;;56.30;7.70;;;;;;5077760;28;20619;-71
2022/08/11 13:27:20;;;;;;;2.15;1.92;;;56.50;7.30;;;;;;5080014;28;20213;-71
2022/08/11 13:29:48;;;;;;;3.60;2.10;;;56.60;7.10;;;;;;5079684;28;20209;-71
2022/08/11 13:32:16;;;;;;;2.42;1.80;;;56.80;7.00;;;;;;5079474;28;20222;-71
2022/08/11 13:34:44;;;;;;;3.83;2.17;;;57.00;7.20;;;;;;5077055;28;20213;-71
2022/08/11 13:37:13;;;;;;;3.20;2.08;;;57.10;6.60;;;;;;5077360;28;20580;-71
2022/08/11 13:39:46;;;;;;;1.90;1.80;;;57.10;5.40;;;;;;5076608;28;20202;-71
2022/08/11 13:42:15;;;;;;;3.03;1.90;;;56.90;6.50;;;;;;5075779;28;20681;-71
2022/08/11 13:44:43;;;;;;;2.10;1.90;;;56.80;6.50;;;;;;5075945;28;20232;-70
2022/08/11 13:47:12;;;;;;;5.22;2.15;;;56.90;6.70;;;;;;5074809;28;20198;-70
2022/08/11 13:49:41;;;;;;;1.95;1.85;;;56.90;6.20;;;;;;5076203;28;20191;-71
2022/08/11 13:52:12;;;;;;;2.25;2.05;;;56.60;6.40;;;;;;5076661;28;20218;-71
2022/08/11 13:54:42;;;;;;;2.10;1.90;;;56.50;6.60;;;;;;5075845;28;20240;-71
2022/08/11 13:57:11;;;;;;;2.85;1.90;;;56.60;6.80;;;;;;5076439;28;20284;-71
2022/08/11 13:59:38;;;;;;;1.90;1.80;;;56.70;6.80;;;;;;5077209;28;20206;-71
2022/08/11 14:02:08;;;;;;;3.80;2.08;;;56.90;6.50;;;;;;5079633;28;20230;-71
2022/08/11 14:04:38;;;;;;;2.20;2.00;;;57.00;6.80;;;;;;5079817;28;20217;-71
2022/08/11 14:07:09;;;;;;;2.10;2.00;;;57.10;6.50;;;;;;5080963;28;20208;-71
2022/08/11 14:09:37;;;;;;;2.20;2.00;;;57.30;6.70;;;;;;5079945;28;20196;-71
2022/08/11 14:15:02;;;;;;;3.33;2.20;;;57.10;5.90;;;;;;5079705;28;20193;-71
2022/08/11 14:17:31;;;;;;;1.92;1.83;;;56.90;5.80;;;;;;5078860;28;20182;-71
2022/08/11 14:20:03;;;;;;;2.15;1.92;;;56.90;6.40;;;;;;5079488;28;20295;-71
2022/08/11 14:22:29;;;;;;;3.13;1.90;;;57.00;6.40;;;;;;5079147;28;20210;-71
2022/08/11 14:24:57;;;;;;;3.63;2.35;;;57.10;6.30;;;;;;5079890;28;20198;-71
2022/08/11 14:27:29;;;;;;;4.68;2.10;;;57.20;5.90;;;;;;5079834;28;20193;-71
2022/08/11 14:29:57;;;;;;;2.47;2.28;;;57.30;5.90;;;;;;5079794;28;20186;-71
2022/08/11 14:32:25;;;;;;;2.38;2.05;;;57.50;6.30;;;;;;5079979;28;20225;-71
2022/08/11 14:34:53;;;;;;;3.05;1.88;;;57.40;6.20;;;;;;5078964;28;20202;-71
2022/08/11 14:37:21;;;;;;;2.88;2.20;;;57.50;5.30;;;;;;5079392;28;20198;-71
2022/08/11 14:39:51;;;;;;;2.63;1.98;;;57.50;5.50;;;;;;5079970;28;20202;-71
2022/08/11 14:48:00;;;;;;;2.40;2.20;;;57.60;5.40;;;;;;5078568;28;20304;-71
2022/08/11 14:50:28;;;;;;;2.20;2.10;;;57.60;5.50;;;;;;5078718;28;20335;-71
2022/08/11 14:53:00;;;;;;;2.28;2.05;;;57.60;6.40;;;;;;5077239;28;20218;-71
2022/08/11 14:58:17;;;;;;;4.25;2.10;;;57.50;6.50;;;;;;5078058;28;20252;-71
2022/08/11 15:00:45;;;;;;;2.03;1.83;;;57.50;6.60;;;;;;5078248;28;20229;-71
2022/08/11 15:03:13;;;;;;;4.47;2.30;;;57.20;6.60;;;;;;5077259;28;20209;-71
2022/08/11 15:05:47;;;;;;;3.22;2.10;;;57.10;6.40;;;;;;5078298;28;20212;-71
2022/08/11 15:08:15;;;;;;;2.17;1.95;;;57.00;6.30;;;;;;5079121;28;20185;-71
2022/08/11 15:10:43;;;;;;;7.90;2.63;;;56.90;6.60;;;;;;5076610;28;20299;-71
2022/08/11 15:13:10;;;;;;;3.50;2.35;;;56.90;6.10;;;;;;5077337;28;20229;-71
2022/08/11 15:18:25;;;;;;;2.80;2.45;;;56.60;6.40;;;;;;5077765;28;20186;-71
2022/08/11 15:37:34;;;;;;;2.58;2.22;;;55.90;7.00;;;;;;5077366;28;20317;-71
2022/08/11 15:45:50;;;;;;;4.43;2.22;;;55.60;6.90;;;;;;5077806;28;20227;-71
2022/08/11 15:48:28;;;;;;;2.55;2.35;;;55.40;7.20;;;;;;5077570;28;20189;-71
2022/08/11 15:51:02;;;;;;;5.47;2.50;;;55.20;7.40;;;;;;5076856;28;20226;-71
2022/08/11 15:53:34;;;;;;;2.75;2.30;;;54.90;7.60;;;;;;5076195;28;20584;-71
2022/08/11 15:56:03;;;;;;;2.40;2.20;;;54.70;7.40;;;;;;5076325;28;20190;-71
2022/08/11 16:04:13;;;;;;;4.03;2.47;;;53.80;8.00;;;;;;5076203;28;20263;-71
2022/08/11 16:06:49;;;;;;;5.45;2.85;;;53.40;8.40;;;;;;5076464;28;20696;-71
2022/08/11 16:09:19;;;;;;;8.32;2.95;;;53.10;8.40;;;;;;5076866;28;20186;-71
2022/08/11 16:11:48;;;;;;;3.83;2.50;;;52.50;8.70;;;;;;5076160;28;20222;-70
2022/08/11 16:17:03;;;;;;;2.80;2.55;;;51.60;9.30;;;;;;5092595;28;20201;-71
2022/08/11 16:19:34;;;;;;;4.10;2.40;;;51.20;9.60;;;;;;5092590;28;20202;-72
2022/08/11 16:22:06;;;;;;;3.38;2.90;;;50.90;9.80;;;;;;5092787;28;20245;-71
2022/08/11 16:24:35;;;;;;;3.13;2.75;;;50.60;10.00;;;;;;5089063;28;20186;-71
2022/08/11 16:27:04;;;;;;;4.60;3.20;;;50.30;10.10;;;;;;5085669;28;20756;-69
2022/08/11 16:29:31;;;;;;;4.40;2.60;;;50.00;10.20;;;;;;5077697;28;20186;-71
2022/08/11 16:32:20;;;;;;;9.25;2.97;;;49.60;10.70;;;;;;5074042;28;20226;-71
2022/08/11 16:40:25;;;;;;;3.10;2.80;;;48.50;11.50;;;;;;5078992;28;20221;-70
2022/08/11 16:48:27;;;;;;;2.70;2.50;;;47.70;12.00;;;;;;5074387;28;20595;-69
2022/08/11 16:50:56;;;;;;;4.13;2.78;;;47.40;12.30;;;;;;5074468;28;20783;-70
2022/08/11 16:53:24;;;;;;;5.70;2.78;;;47.20;12.70;;;;;;5075114;28;20218;-71
2022/08/11 16:55:53;;;;;;;3.10;2.90;;;46.90;12.80;;;;;;5076620;28;20205;-70
2022/08/11 17:01:07;;;;;;;5.93;2.88;;;46.30;13.00;;;;;;5077275;28;20239;-70
2022/08/11 17:14:48;;;;;;;6.45;3.17;;;45.00;13.80;;;;;;5076745;28;20185;-70
2022/08/11 17:17:17;;;;;;;5.50;3.30;;;44.70;14.30;;;;;;5077937;28;20193;-68
2022/08/11 17:19:49;;;;;;;3.85;3.35;;;44.50;14.40;;;;;;5081203;28;20195;-69
2022/08/11 17:25:05;;;;;;;4.30;3.25;;;43.90;15.00;;;;;;5078372;28;20242;-70
2022/08/11 17:27:34;;;;;;;2.88;2.78;;;43.50;15.30;;;;;;5080048;28;20190;-69
2022/08/11 17:30:04;;;;;;;3.22;3.03;;;43.20;15.20;;;;;;5080145;28;20209;-70
2022/08/11 17:35:29;;;;;;;6.40;3.22;;;42.50;15.80;;;;;;5081679;28;20204;-69
2022/08/11 17:37:59;;;;;;;7.82;3.17;;;42.20;16.20;;;;;;5082980;28;20193;-70
2022/08/11 17:40:29;;;;;;;3.50;3.20;;;41.90;16.70;;;;;;5084490;28;20218;-69
2022/08/11 17:48:30;;;;;;;8.07;3.70;;;40.90;17.10;;;;;;5083349;28;20638;-68
2022/08/11 17:50:59;;;;;;;3.92;3.53;;;40.50;17.40;;;;;;5083376;28;20218;-69
2022/08/11 18:01:47;;;;;;;4.33;4.03;;;39.10;18.50;;;;;;5083477;28;20279;-68
2022/08/11 18:04:14;;;;;;;5.23;3.70;;;38.70;18.90;;;;;;5081941;28;20289;-68
2022/08/11 18:06:42;;;;;;;3.63;3.30;;;38.40;19.30;;;;;;5080646;28;20564;-68
